aviador You're here:

LFLY Decoded Metar

LYON BRON in FRANCE
Report Time2017-10-17 11:00:00
UTC Time2017-10-17 11:24:07
Flight Rules vfr VFR
WindVRB at 03 kt
Visibility9999 m
Phenomena:N/A
Clouds:N/A
Expected CloudBase > 3,200 ft AGL from Temp-Dew spread
CeilingNone
Temp20°C (ISA +6)
Dew Point12°C (60% RH)
AAT19.5°C
QNH1022 hPa
Density Alt1,286 ft
Elevation659 ft
Report Wrong Elevation
Raw Report
LFLY 171100Z AUTO VRB03KT CAVOK 20/12 Q1022 NOSIG=

Extra information for LFLY:More info

Metar Taf Metar & Taf Last 4 Metars F.Rules Stats Wind Profile Meteogram Temp Stats Airport Information Weather charts Add Link Nearby VenuesMetar ALERT Operation Metar Decoded Social comments